LEZL/SVQ METAR and TAF weather

Enter ICAO airport designator
Station Type Date Time Source
LEZL METAR 2021/08/02 02:00 UTC NOAA

LEZL 020200Z AUTO VRB02KT CAVOK 20/12 Q1014


Station Type Date Time Source
LEZL Decoded METAR 2021/08/02 02:00 UTC NOAA

Sevilla / San Pablo, Spain (LEZL) 37-25N 005-54W 31M
Aug 01, 2021 - 10:00 PM EDT / 2021.08.02 0200 UTC
Wind: Variable at 2 MPH (2 KT):0
Visibility: greater than 7 mile(s):0
Temperature: 68 F (20 C)
Dew Point: 53 F (12 C)
Relative Humidity: 59%
Pressure (altimeter): 29.94 in. Hg (1014 hPa)
ob: LEZL 020200Z AUTO VRB02KT CAVOK 20/12 Q1014
cycle: 2

Station Type Date Time Source
LEZL TAF 2021/08/01 21:27 UTC NOAA

TAF LEZL 012000Z 0121/0221 VRB04KT CAVOK TX33/0215Z TN19/0206Z

Example: see airport list